createdAt,value
2023-05-24T00:04:25.636Z,1019.23
2023-05-24T00:14:31.042Z,1019.30
2023-05-24T00:24:36.854Z,1019.29
2023-05-24T00:34:42.288Z,1019.40
2023-05-24T00:44:48.016Z,1019.31
2023-05-24T00:54:53.817Z,1019.31
2023-05-24T01:04:59.353Z,1019.24
2023-05-24T01:15:04.473Z,1019.38
2023-05-24T01:25:10.800Z,1019.36
2023-05-24T01:35:16.165Z,1019.39
2023-05-24T01:45:21.896Z,1019.46
2023-05-24T01:55:27.307Z,1019.51
2023-05-24T02:05:32.786Z,1019.51
2023-05-24T02:15:38.522Z,1019.50
2023-05-24T02:25:43.744Z,1019.48
2023-05-24T02:35:49.477Z,1019.44
2023-05-24T02:45:54.671Z,1019.45
2023-05-24T02:55:59.772Z,1019.37
2023-05-24T03:06:05.200Z,1019.46
2023-05-24T03:16:11.103Z,1019.49
2023-05-24T03:26:16.839Z,1019.51
2023-05-24T03:36:22.006Z,1019.50
2023-05-24T03:46:28.040Z,1019.57
2023-05-24T03:56:33.563Z,1019.71
2023-05-24T04:06:39.145Z,1019.74
2023-05-24T04:16:44.200Z,1019.73
2023-05-24T04:26:49.527Z,1019.81
2023-05-24T04:36:55.320Z,1019.88
2023-05-24T04:47:00.796Z,1019.92
2023-05-24T04:57:06.357Z,1020.01
2023-05-24T05:07:11.631Z,1020.23
2023-05-24T05:17:17.122Z,1020.24
2023-05-24T05:27:23.022Z,1020.41
2023-05-24T05:37:28.422Z,1020.49
2023-05-24T05:47:33.844Z,1020.55
2023-05-24T05:57:39.205Z,1020.58
2023-05-24T06:07:44.675Z,1020.71
2023-05-24T06:17:50.326Z,1020.71
2023-05-24T06:27:55.954Z,1020.83
2023-05-24T06:38:01.417Z,1020.83
2023-05-24T06:48:07.518Z,1021.09
2023-05-24T06:58:13.561Z,1021.17
2023-05-24T07:08:18.899Z,1021.14
2023-05-24T07:18:25.365Z,1021.22
2023-05-24T07:28:31.349Z,1021.34
2023-05-24T07:38:37.277Z,1021.41
2023-05-24T07:48:42.901Z,1021.49
2023-05-24T07:58:48.330Z,1021.60
2023-05-24T08:08:54.276Z,1021.70
2023-05-24T08:18:59.707Z,1021.71
2023-05-24T08:29:05.472Z,1021.77
2023-05-24T08:39:11.233Z,1021.88
2023-05-24T08:49:16.593Z,1021.92
2023-05-24T08:59:22.063Z,1021.99
2023-05-24T09:09:27.573Z,1022.05
2023-05-24T09:19:33.105Z,1022.04
2023-05-24T09:29:38.611Z,1022.04
2023-05-24T09:39:43.972Z,1022.06
2023-05-24T09:49:49.429Z,1022.09
2023-05-24T09:59:54.981Z,1022.18
2023-05-24T10:10:00.706Z,1022.25
2023-05-24T10:20:06.529Z,1022.27
2023-05-24T10:30:13.836Z,1022.29
2023-05-24T10:40:19.682Z,1022.39
2023-05-24T10:50:25.179Z,1022.41
2023-05-24T11:10:39.424Z,1022.38
2023-05-24T11:20:45.041Z,1022.30
2023-05-24T11:30:51.079Z,1022.33
2023-05-24T11:40:56.976Z,1022.35
2023-05-24T11:51:02.481Z,1022.38
2023-05-24T12:01:07.598Z,1022.50
2023-05-24T12:11:13.089Z,1022.55
2023-05-24T12:21:18.577Z,1022.58
2023-05-24T12:31:24.537Z,1022.48
2023-05-24T12:41:30.075Z,1022.46
2023-05-24T12:51:35.497Z,1022.39
2023-05-24T13:01:41.267Z,1022.34
2023-05-24T13:11:46.937Z,1022.47
2023-05-24T13:21:52.741Z,1022.51
2023-05-24T13:31:58.430Z,1022.40
2023-05-24T13:42:03.999Z,1022.38
2023-05-24T13:52:09.991Z,1022.45
2023-05-24T14:02:15.674Z,1022.33
2023-05-24T14:12:21.470Z,1022.36
2023-05-24T14:22:26.726Z,1022.39
2023-05-24T14:32:32.197Z,1022.38
2023-05-24T14:42:37.675Z,1022.30
2023-05-24T14:52:42.947Z,1022.31
2023-05-24T15:02:48.413Z,1022.32
2023-05-24T15:12:53.827Z,1022.35
2023-05-24T15:22:59.538Z,1022.25
2023-05-24T15:33:05.149Z,1022.30
2023-05-24T15:43:10.854Z,1022.25
2023-05-24T15:53:16.404Z,1022.29
2023-05-24T16:03:22.345Z,1022.25
2023-05-24T16:13:27.736Z,1022.27
2023-05-24T16:23:33.239Z,1022.28
2023-05-24T16:33:38.948Z,1022.29
2023-05-24T16:43:45.429Z,1022.34
2023-05-24T16:53:50.614Z,1022.30
2023-05-24T17:03:56.194Z,1022.35
2023-05-24T17:14:01.467Z,1022.35
2023-05-24T17:24:07.078Z,1022.38
2023-05-24T17:34:12.382Z,1022.47
2023-05-24T17:44:18.273Z,1022.45
2023-05-24T17:54:23.797Z,1022.55
2023-05-24T18:04:29.237Z,1022.61
2023-05-24T18:14:34.766Z,1022.69
2023-05-24T18:24:40.185Z,1022.75
2023-05-24T18:34:45.569Z,1022.87
2023-05-24T18:44:50.810Z,1022.94
2023-05-24T18:54:56.254Z,1023.00
2023-05-24T19:05:02.102Z,1023.08
2023-05-24T19:15:07.696Z,1023.14
2023-05-24T19:25:13.121Z,1023.25
2023-05-24T19:35:18.674Z,1023.34
2023-05-24T19:45:23.800Z,1023.49
2023-05-24T19:55:29.606Z,1023.51
2023-05-24T20:05:35.889Z,1023.47
2023-05-24T20:15:41.562Z,1023.54
2023-05-24T20:25:47.071Z,1023.59
2023-05-24T20:35:52.488Z,1023.60
2023-05-24T20:45:58.319Z,1023.67
2023-05-24T20:56:03.628Z,1023.67
2023-05-24T21:06:08.939Z,1023.77
2023-05-24T21:16:13.687Z,1023.93
2023-05-24T21:26:19.339Z,1024.00
2023-05-24T21:36:24.196Z,1023.98
2023-05-24T21:46:29.641Z,1024.02
2023-05-24T21:56:35.235Z,1024.10
2023-05-24T22:06:40.984Z,1024.21
2023-05-24T22:16:47.652Z,1024.30
2023-05-24T22:26:53.204Z,1024.33
2023-05-24T22:36:58.870Z,1024.34
2023-05-24T22:47:04.368Z,1024.41
2023-05-24T22:57:09.486Z,1024.36
2023-05-24T23:07:14.571Z,1024.33
2023-05-24T23:17:19.996Z,1024.34
2023-05-24T23:27:25.409Z,1024.38
2023-05-24T23:37:30.802Z,1024.47
2023-05-24T23:47:36.599Z,1024.47
2023-05-24T23:57:42.051Z,1024.47
